createdAt,value
2023-03-03T00:01:08.360Z,1.02
2023-03-03T00:03:36.662Z,1.00
2023-03-03T00:06:06.107Z,0.70
2023-03-03T00:08:34.365Z,2.83
2023-03-03T00:11:06.295Z,1.90
2023-03-03T00:13:41.104Z,1.10
2023-03-03T00:16:16.137Z,0.80
2023-03-03T00:18:46.641Z,0.80
2023-03-03T00:21:29.185Z,0.70
2023-03-03T00:24:04.798Z,1.00
2023-03-03T00:26:38.741Z,0.93
2023-03-03T00:29:29.605Z,1.15
2023-03-03T00:32:08.917Z,0.90
2023-03-03T00:34:38.512Z,1.40
2023-03-03T00:37:24.828Z,1.10
2023-03-03T00:39:53.115Z,1.25
2023-03-03T00:42:23.553Z,1.58
2023-03-03T00:44:58.139Z,2.03
2023-03-03T00:47:32.541Z,1.70
2023-03-03T00:50:26.764Z,1.33
2023-03-03T00:53:02.503Z,1.40
2023-03-03T00:55:31.607Z,1.92
2023-03-03T00:58:01.189Z,1.20
2023-03-03T01:00:33.946Z,1.30
2023-03-03T01:03:05.340Z,1.55
2023-03-03T01:05:33.952Z,1.13
2023-03-03T01:08:03.171Z,1.00
2023-03-03T01:10:35.661Z,1.52
2023-03-03T01:13:06.552Z,1.42
2023-03-03T01:15:34.979Z,1.08
2023-03-03T01:18:03.290Z,0.80
2023-03-03T01:20:31.420Z,1.33
2023-03-03T01:22:59.630Z,1.42
2023-03-03T01:25:27.769Z,1.92
2023-03-03T01:27:55.917Z,1.60
2023-03-03T01:30:25.890Z,1.20
2023-03-03T01:32:54.813Z,1.50
2023-03-03T01:35:23.288Z,1.17
2023-03-03T01:37:53.883Z,1.85
2023-03-03T01:40:24.895Z,1.63
2023-03-03T01:42:53.583Z,1.20
2023-03-03T01:45:23.630Z,1.40
2023-03-03T01:47:59.842Z,1.58
2023-03-03T01:50:37.403Z,1.25
2023-03-03T01:53:08.227Z,1.40
2023-03-03T01:55:40.124Z,0.90
2023-03-03T01:58:12.315Z,1.80
2023-03-03T02:00:43.622Z,1.33
2023-03-03T02:03:13.372Z,1.27
2023-03-03T02:05:43.211Z,0.75
2023-03-03T02:08:16.062Z,1.65
2023-03-03T02:10:46.148Z,0.93
2023-03-03T02:13:14.726Z,0.93
2023-03-03T02:15:42.887Z,0.80
2023-03-03T02:18:14.468Z,0.77
2023-03-03T02:23:28.555Z,1.20
2023-03-03T02:26:12.193Z,1.00
2023-03-03T02:28:42.081Z,1.20
2023-03-03T02:31:14.385Z,0.90
2023-03-03T02:33:43.173Z,1.10
2023-03-03T02:36:14.843Z,1.10
2023-03-03T02:38:49.661Z,0.90
2023-03-03T02:41:28.329Z,1.25
2023-03-03T02:44:00.456Z,0.90
2023-03-03T02:46:29.173Z,1.00
2023-03-03T02:48:57.308Z,0.73
2023-03-03T02:51:25.463Z,0.88
2023-03-03T02:53:53.613Z,1.15
2023-03-03T02:56:23.893Z,0.85
2023-03-03T02:58:52.259Z,0.80
2023-03-03T03:01:20.816Z,1.52
2023-03-03T03:03:49.020Z,0.90
2023-03-03T03:06:17.246Z,1.38
2023-03-03T03:08:45.512Z,1.20
2023-03-03T03:11:13.637Z,1.70
2023-03-03T03:13:43.141Z,1.00
2023-03-03T03:16:11.555Z,1.10
2023-03-03T03:18:39.706Z,1.33
2023-03-03T03:21:09.731Z,1.30
2023-03-03T03:23:38.034Z,1.30
2023-03-03T03:26:07.221Z,1.15
2023-03-03T03:28:36.329Z,1.20
2023-03-03T03:31:07.935Z,1.27
2023-03-03T03:36:06.393Z,1.23
2023-03-03T03:38:36.778Z,1.63
2023-03-03T03:41:05.888Z,1.40
2023-03-03T03:43:34.666Z,1.38
2023-03-03T03:46:02.976Z,1.23
2023-03-03T03:48:32.826Z,1.75
2023-03-03T03:51:00.927Z,1.63
2023-03-03T03:53:29.306Z,1.63
2023-03-03T03:55:57.452Z,1.77
2023-03-03T03:58:25.637Z,1.10
2023-03-03T04:00:53.991Z,1.40
2023-03-03T04:03:22.411Z,1.30
2023-03-03T04:05:54.150Z,1.00
2023-03-03T04:08:22.538Z,1.60
2023-03-03T04:10:50.749Z,1.40
2023-03-03T04:13:18.898Z,1.23
2023-03-03T04:15:47.114Z,1.15
2023-03-03T04:18:15.260Z,1.63
2023-03-03T04:20:43.604Z,1.50
2023-03-03T04:23:13.176Z,1.13
2023-03-03T04:25:41.508Z,1.67
2023-03-03T04:28:10.770Z,1.35
2023-03-03T04:30:38.909Z,1.63
2023-03-03T04:33:07.109Z,1.58
2023-03-03T04:35:35.253Z,1.48
2023-03-03T04:38:03.548Z,1.30
2023-03-03T04:40:33.107Z,1.33
2023-03-03T04:43:01.181Z,1.10
2023-03-03T04:45:29.299Z,1.50
2023-03-03T04:47:57.431Z,1.55
2023-03-03T04:50:25.545Z,1.63
2023-03-03T04:52:53.762Z,1.63
2023-03-03T04:55:22.571Z,1.70
2023-03-03T04:57:52.073Z,1.58
2023-03-03T05:00:20.962Z,1.83
2023-03-03T05:02:50.052Z,1.70
2023-03-03T05:05:18.381Z,1.52
2023-03-03T05:07:46.540Z,1.48
2023-03-03T05:10:14.660Z,1.63
2023-03-03T05:12:42.837Z,1.60
2023-03-03T05:15:12.764Z,1.83
2023-03-03T05:17:41.258Z,1.80
2023-03-03T05:20:11.359Z,1.63
2023-03-03T05:22:39.482Z,1.58
2023-03-03T05:25:09.925Z,1.85
2023-03-03T05:27:38.101Z,1.48
2023-03-03T05:30:07.408Z,1.50
2023-03-03T05:32:37.108Z,1.70
2023-03-03T05:35:06.281Z,2.40
2023-03-03T05:37:34.430Z,1.75
2023-03-03T05:40:02.677Z,1.40
2023-03-03T05:42:30.845Z,1.90
2023-03-03T05:44:59.002Z,1.50
2023-03-03T05:47:27.154Z,1.90
2023-03-03T05:49:56.661Z,1.92
2023-03-03T05:52:25.458Z,1.88
2023-03-03T05:54:53.652Z,1.75
2023-03-03T05:57:21.751Z,2.85
2023-03-03T05:59:49.941Z,1.85
2023-03-03T06:02:18.092Z,2.25
2023-03-03T06:04:46.320Z,2.08
2023-03-03T06:07:15.867Z,2.20
2023-03-03T06:09:44.054Z,2.15
2023-03-03T06:12:12.408Z,1.95
2023-03-03T06:14:40.593Z,3.10
2023-03-03T06:17:08.750Z,2.50
2023-03-03T06:19:37.757Z,2.47
2023-03-03T06:22:06.023Z,2.10
2023-03-03T06:24:35.567Z,2.28
2023-03-03T06:27:03.775Z,2.42
2023-03-03T06:29:31.945Z,2.50
2023-03-03T06:32:00.341Z,2.40
2023-03-03T06:34:31.801Z,4.18
2023-03-03T06:39:28.312Z,2.45
2023-03-03T06:41:57.835Z,2.45
2023-03-03T06:44:28.555Z,2.85
2023-03-03T06:46:59.045Z,2.45
2023-03-03T06:49:27.181Z,3.80
2023-03-03T06:51:55.345Z,3.30
2023-03-03T06:54:31.016Z,3.17
2023-03-03T06:57:06.933Z,2.75
2023-03-03T06:59:35.138Z,2.88
2023-03-03T07:02:03.453Z,2.30
2023-03-03T07:04:34.541Z,2.70
2023-03-03T07:07:12.372Z,2.92
2023-03-03T07:09:40.540Z,3.35
2023-03-03T07:12:17.467Z,2.97
2023-03-03T07:14:50.775Z,2.70
2023-03-03T07:17:21.163Z,3.67
2023-03-03T07:19:49.951Z,2.70
2023-03-03T07:22:19.824Z,3.13
2023-03-03T07:24:52.533Z,2.40
2023-03-03T07:27:25.686Z,3.20
2023-03-03T07:29:56.399Z,3.08
2023-03-03T07:32:29.487Z,3.45
2023-03-03T07:34:58.243Z,3.08
2023-03-03T07:37:35.860Z,2.60
2023-03-03T07:40:26.703Z,2.75
2023-03-03T07:42:56.206Z,3.23
2023-03-03T07:45:29.216Z,3.08
2023-03-03T07:48:02.800Z,3.63
2023-03-03T07:50:31.312Z,4.78
2023-03-03T07:53:01.517Z,4.53
2023-03-03T07:55:35.562Z,3.83
2023-03-03T07:58:24.304Z,3.63
2023-03-03T08:01:28.615Z,3.95
2023-03-03T08:03:58.017Z,3.63
2023-03-03T08:06:41.449Z,2.67
2023-03-03T08:09:32.206Z,3.00
2023-03-03T08:12:07.417Z,2.83
2023-03-03T08:14:38.600Z,2.90
2023-03-03T08:17:16.029Z,2.42
2023-03-03T08:19:44.167Z,2.63
2023-03-03T08:22:16.555Z,2.53
2023-03-03T08:24:44.963Z,2.55
2023-03-03T08:27:13.187Z,3.15
2023-03-03T08:29:42.691Z,2.72
2023-03-03T08:32:10.838Z,2.30
2023-03-03T08:34:39.069Z,3.42
2023-03-03T08:37:07.234Z,3.10
2023-03-03T08:39:35.634Z,3.75
2023-03-03T08:42:05.813Z,3.03
2023-03-03T08:44:33.952Z,2.80
2023-03-03T08:47:03.497Z,3.38
2023-03-03T08:49:31.583Z,3.15
2023-03-03T08:52:00.880Z,3.95
2023-03-03T08:54:29.056Z,3.03
2023-03-03T08:56:57.143Z,4.03
2023-03-03T08:59:25.285Z,3.50
2023-03-03T09:01:53.418Z,3.72
2023-03-03T09:04:22.928Z,3.67
2023-03-03T09:06:51.424Z,3.50
2023-03-03T09:09:19.506Z,4.68
2023-03-03T09:11:48.123Z,5.55
2023-03-03T09:14:17.893Z,5.15
2023-03-03T09:16:51.299Z,5.13
2023-03-03T09:19:28.202Z,5.10
2023-03-03T09:21:57.870Z,5.00
2023-03-03T09:24:28.603Z,5.35
2023-03-03T09:26:58.940Z,6.47
2023-03-03T09:29:29.384Z,4.80
2023-03-03T09:31:59.222Z,5.20
2023-03-03T09:34:39.280Z,6.22
2023-03-03T09:37:20.781Z,5.47
2023-03-03T09:39:51.288Z,5.85
2023-03-03T09:42:38.897Z,6.03
2023-03-03T09:45:27.923Z,5.53
2023-03-03T09:48:23.216Z,5.50
2023-03-03T09:51:03.509Z,6.22
2023-03-03T09:53:47.841Z,5.40
2023-03-03T09:56:20.607Z,6.25
2023-03-03T09:59:01.187Z,5.22
2023-03-03T10:01:49.502Z,5.00
2023-03-03T10:04:34.566Z,5.05
2023-03-03T10:07:20.503Z,4.25
2023-03-03T10:10:17.972Z,4.47
2023-03-03T10:12:58.217Z,2.67
2023-03-03T10:15:35.582Z,2.03
2023-03-03T10:18:13.379Z,1.10
2023-03-03T10:20:58.602Z,1.30
2023-03-03T10:23:44.042Z,1.63
2023-03-03T10:26:31.669Z,1.35
2023-03-03T10:29:23.107Z,1.20
2023-03-03T10:32:02.254Z,1.40
2023-03-03T10:34:49.895Z,1.42
2023-03-03T10:37:27.925Z,1.40
2023-03-03T10:40:10.986Z,1.52
2023-03-03T10:43:01.517Z,1.65
2023-03-03T10:45:54.242Z,1.52
2023-03-03T10:48:41.176Z,2.10
2023-03-03T10:51:24.050Z,1.67
2023-03-03T10:54:00.966Z,1.90
2023-03-03T10:56:52.485Z,1.50
2023-03-03T10:59:41.928Z,2.38
2023-03-03T11:02:19.531Z,1.40
2023-03-03T11:05:24.315Z,1.55
2023-03-03T11:07:59.001Z,1.88
2023-03-03T11:10:48.406Z,2.00
2023-03-03T11:13:25.393Z,2.70
2023-03-03T11:16:05.917Z,2.70
2023-03-03T11:18:47.631Z,2.53
2023-03-03T11:24:25.316Z,2.92
2023-03-03T11:27:17.534Z,3.38
2023-03-03T11:29:59.836Z,4.13
2023-03-03T11:32:38.301Z,4.18
2023-03-03T11:35:20.622Z,7.95
2023-03-03T11:37:58.519Z,5.55
2023-03-03T11:40:29.966Z,5.20
2023-03-03T11:45:40.454Z,3.13
2023-03-03T11:48:15.980Z,2.85
2023-03-03T11:50:51.189Z,4.18
2023-03-03T11:53:30.586Z,3.40
2023-03-03T11:56:08.694Z,4.60
2023-03-03T11:58:46.057Z,4.43
2023-03-03T12:01:24.159Z,4.00
2023-03-03T12:03:59.725Z,4.90
2023-03-03T12:06:37.592Z,4.50
2023-03-03T12:09:23.849Z,5.05
2023-03-03T12:11:55.994Z,4.78
2023-03-03T12:14:49.051Z,5.03
2023-03-03T12:17:31.449Z,4.57
2023-03-03T12:20:09.664Z,4.57
2023-03-03T12:22:45.905Z,5.32
2023-03-03T12:25:34.791Z,5.20
2023-03-03T12:28:10.881Z,4.93
2023-03-03T12:30:56.314Z,4.88
2023-03-03T12:33:39.203Z,5.03
2023-03-03T12:36:21.492Z,4.90
2023-03-03T12:38:56.784Z,4.70
2023-03-03T12:41:34.405Z,5.60
2023-03-03T12:44:11.601Z,6.20
2023-03-03T12:46:47.361Z,6.03
2023-03-03T12:49:17.086Z,6.80
2023-03-03T12:51:56.743Z,7.35
2023-03-03T12:54:57.109Z,8.73
2023-03-03T12:57:35.160Z,8.40
2023-03-03T13:00:24.420Z,8.48
2023-03-03T13:03:01.219Z,7.88
2023-03-03T13:05:44.647Z,8.80
2023-03-03T13:08:32.486Z,6.97
2023-03-03T13:11:14.362Z,7.07
2023-03-03T13:13:50.882Z,7.45
2023-03-03T13:16:40.262Z,7.15
2023-03-03T13:19:13.722Z,1.83
2023-03-03T13:21:50.131Z,1.30
2023-03-03T13:24:23.239Z,2.13
2023-03-03T13:26:55.693Z,1.15
2023-03-03T13:29:28.731Z,0.98
2023-03-03T13:32:01.430Z,2.17
2023-03-03T13:34:41.686Z,1.02
2023-03-03T13:37:19.889Z,1.40
2023-03-03T13:39:58.341Z,1.58
2023-03-03T13:42:33.904Z,1.10
2023-03-03T13:45:08.375Z,2.03
2023-03-03T13:47:47.387Z,2.05
2023-03-03T13:50:23.608Z,1.65
2023-03-03T13:53:08.574Z,1.08
2023-03-03T13:55:43.994Z,0.57
2023-03-03T13:58:22.741Z,0.50
2023-03-03T14:00:58.870Z,0.60
2023-03-03T14:04:24.275Z,1.00
2023-03-03T14:06:57.576Z,0.88
2023-03-03T14:09:44.169Z,0.40
2023-03-03T14:12:21.838Z,0.70
2023-03-03T14:14:58.451Z,0.88
2023-03-03T14:17:34.957Z,0.43
2023-03-03T14:20:14.263Z,0.80
2023-03-03T14:22:48.203Z,1.35
2023-03-03T14:25:18.061Z,1.20
2023-03-03T14:28:02.790Z,2.88
2023-03-03T14:30:38.074Z,2.20
2023-03-03T14:33:21.942Z,0.70
2023-03-03T14:36:05.015Z,0.80
2023-03-03T14:38:46.552Z,0.82
2023-03-03T14:41:19.281Z,2.00
2023-03-03T14:43:58.882Z,0.90
2023-03-03T14:46:40.369Z,1.00
2023-03-03T14:49:16.605Z,1.55
2023-03-03T14:51:47.480Z,1.60
2023-03-03T14:54:25.626Z,0.75
2023-03-03T14:57:01.587Z,1.10
2023-03-03T14:59:30.039Z,1.63
2023-03-03T15:02:30.082Z,0.80
2023-03-03T15:05:17.609Z,0.73
2023-03-03T15:07:47.427Z,1.00
2023-03-03T15:10:29.332Z,0.80
2023-03-03T15:12:59.428Z,0.50
2023-03-03T15:15:29.090Z,0.60
2023-03-03T15:18:04.251Z,0.60
2023-03-03T15:20:40.412Z,0.77
2023-03-03T15:23:40.008Z,0.65
2023-03-03T15:26:13.224Z,0.75
2023-03-03T15:28:55.988Z,0.65
2023-03-03T15:31:37.485Z,1.35
2023-03-03T15:34:23.164Z,1.08
2023-03-03T15:36:58.743Z,1.15
2023-03-03T15:39:36.243Z,0.60
2023-03-03T15:42:07.170Z,0.70
2023-03-03T15:44:52.030Z,0.50
2023-03-03T15:47:50.176Z,0.55
2023-03-03T15:50:45.026Z,0.77
2023-03-03T15:53:28.609Z,0.50
2023-03-03T15:56:13.311Z,0.65
2023-03-03T15:59:05.750Z,0.82
2023-03-03T16:01:40.073Z,1.27
2023-03-03T16:04:12.899Z,1.02
2023-03-03T16:06:51.237Z,0.45
2023-03-03T16:09:31.001Z,0.85
2023-03-03T16:12:10.254Z,0.60
2023-03-03T16:15:04.011Z,0.55
2023-03-03T16:17:43.773Z,0.63
2023-03-03T16:20:23.204Z,0.90
2023-03-03T16:23:02.829Z,1.23
2023-03-03T16:25:43.668Z,1.10
2023-03-03T16:28:20.294Z,1.00
2023-03-03T16:30:53.702Z,1.52
2023-03-03T16:33:32.793Z,0.70
2023-03-03T16:36:10.042Z,1.10
2023-03-03T16:38:41.366Z,2.17
2023-03-03T16:41:14.136Z,1.60
2023-03-03T16:44:04.566Z,0.90
2023-03-03T16:46:37.281Z,0.95
2023-03-03T16:49:14.678Z,1.23
2023-03-03T16:51:50.069Z,1.80
2023-03-03T16:54:28.231Z,1.02
2023-03-03T16:57:06.408Z,0.85
2023-03-03T17:00:00.389Z,0.88
2023-03-03T17:02:52.597Z,0.85
2023-03-03T17:05:31.081Z,0.75
2023-03-03T17:08:14.611Z,1.40
2023-03-03T17:10:47.487Z,1.25
2023-03-03T17:13:38.831Z,1.17
2023-03-03T17:16:16.058Z,1.40
2023-03-03T17:18:58.135Z,1.23
2023-03-03T17:21:39.186Z,1.20
2023-03-03T17:24:18.974Z,0.70
2023-03-03T17:26:57.339Z,0.80
2023-03-03T17:29:40.736Z,0.80
2023-03-03T17:32:25.678Z,1.60
2023-03-03T17:35:09.966Z,1.88
2023-03-03T17:37:50.352Z,1.92
2023-03-03T17:40:43.407Z,2.60
2023-03-03T17:43:14.748Z,2.58
2023-03-03T17:45:46.834Z,1.90
2023-03-03T17:48:41.269Z,1.40
2023-03-03T17:51:26.124Z,1.20
2023-03-03T17:54:09.697Z,1.20
2023-03-03T17:56:47.268Z,1.02
2023-03-03T17:59:31.146Z,0.73
2023-03-03T18:02:20.842Z,0.50
2023-03-03T18:05:06.185Z,0.40
2023-03-03T18:07:55.639Z,0.70
2023-03-03T18:10:50.680Z,1.42
2023-03-03T18:13:35.797Z,1.60
2023-03-03T18:16:19.348Z,2.95
2023-03-03T18:19:13.492Z,0.75
2023-03-03T18:21:53.211Z,0.45
2023-03-03T18:24:31.882Z,0.60
2023-03-03T18:27:28.930Z,0.70
2023-03-03T18:30:29.679Z,0.50
2023-03-03T18:33:12.839Z,0.90
2023-03-03T18:35:43.510Z,1.10
2023-03-03T18:38:40.032Z,1.20
2023-03-03T18:41:12.507Z,1.17
2023-03-03T18:44:24.813Z,1.27
2023-03-03T18:46:58.811Z,0.82
2023-03-03T18:49:53.744Z,0.80
2023-03-03T18:52:25.383Z,0.90
2023-03-03T18:55:21.678Z,1.27
2023-03-03T18:58:24.199Z,3.67
2023-03-03T19:00:56.452Z,1.65
2023-03-03T19:03:35.233Z,2.08
2023-03-03T19:06:04.231Z,1.58
2023-03-03T19:08:53.913Z,1.02
2023-03-03T19:11:38.774Z,1.95
2023-03-03T19:14:33.141Z,1.85
2023-03-03T19:17:41.206Z,1.42
2023-03-03T19:20:14.361Z,1.55
2023-03-03T19:22:48.109Z,1.58
2023-03-03T19:25:22.759Z,0.93
2023-03-03T19:28:04.795Z,0.82
2023-03-03T19:30:56.091Z,1.13
2023-03-03T19:33:52.312Z,2.58
2023-03-03T19:36:57.678Z,0.70
2023-03-03T19:39:51.760Z,0.90
2023-03-03T19:42:32.889Z,0.93
2023-03-03T19:45:20.667Z,0.40
2023-03-03T19:47:55.686Z,0.63
2023-03-03T19:50:38.184Z,0.70
2023-03-03T19:53:16.543Z,0.85
2023-03-03T19:55:58.688Z,0.80
2023-03-03T19:58:36.647Z,0.90
2023-03-03T20:01:15.194Z,0.60
2023-03-03T20:04:07.567Z,0.73
2023-03-03T20:06:50.837Z,0.85
2023-03-03T20:09:25.975Z,0.88
2023-03-03T20:12:09.735Z,0.52
2023-03-03T20:14:50.145Z,0.80
2023-03-03T20:17:44.511Z,0.50
2023-03-03T20:20:35.646Z,0.80
2023-03-03T20:23:16.671Z,0.80
2023-03-03T20:25:47.766Z,0.50
2023-03-03T20:28:33.860Z,0.45
2023-03-03T20:31:11.377Z,0.75
2023-03-03T20:33:51.266Z,0.60
2023-03-03T20:36:28.760Z,0.70
2023-03-03T20:39:07.986Z,0.50
2023-03-03T20:41:51.806Z,0.75
2023-03-03T20:44:32.738Z,1.08
2023-03-03T20:47:08.126Z,0.52
2023-03-03T20:49:57.882Z,0.73
2023-03-03T20:52:34.568Z,0.30
2023-03-03T20:55:16.242Z,0.60
2023-03-03T20:57:53.116Z,0.75
2023-03-03T21:00:27.089Z,0.90
2023-03-03T21:03:07.051Z,0.63
2023-03-03T21:05:35.388Z,1.08
2023-03-03T21:08:08.134Z,0.70
2023-03-03T21:10:41.551Z,1.60
2023-03-03T21:13:29.513Z,1.23
2023-03-03T21:16:03.389Z,0.60
2023-03-03T21:18:32.265Z,0.60
2023-03-03T21:21:00.432Z,0.80
2023-03-03T21:23:28.711Z,1.45
2023-03-03T21:25:59.328Z,0.38
2023-03-03T21:28:29.409Z,0.47
2023-03-03T21:31:02.166Z,0.73
2023-03-03T21:33:50.330Z,1.60
2023-03-03T21:36:20.267Z,0.40
2023-03-03T21:38:48.971Z,0.40
2023-03-03T21:41:19.593Z,1.00
2023-03-03T21:43:49.834Z,1.07
2023-03-03T21:46:24.525Z,2.45
2023-03-03T21:48:53.468Z,0.45
2023-03-03T21:51:24.388Z,0.60
2023-03-03T21:53:52.621Z,0.70
2023-03-03T21:56:22.159Z,0.60
2023-03-03T21:58:50.267Z,0.57
2023-03-03T22:01:18.497Z,1.35
2023-03-03T22:03:46.980Z,0.45
2023-03-03T22:06:15.262Z,0.40
2023-03-03T22:08:45.815Z,0.70
2023-03-03T22:11:15.590Z,0.57
2023-03-03T22:13:45.421Z,0.50
2023-03-03T22:16:13.782Z,0.98
2023-03-03T22:18:41.975Z,0.65
2023-03-03T22:21:10.081Z,0.40
2023-03-03T22:23:38.406Z,0.30
2023-03-03T22:26:06.628Z,0.52
2023-03-03T22:28:34.756Z,0.65
2023-03-03T22:31:04.351Z,0.65
2023-03-03T22:33:32.562Z,0.60
2023-03-03T22:36:00.688Z,0.60
2023-03-03T22:38:28.846Z,0.50
2023-03-03T22:40:56.965Z,0.80
2023-03-03T22:43:25.838Z,0.75
2023-03-03T22:45:54.192Z,0.75
2023-03-03T22:48:24.455Z,0.75
2023-03-03T22:50:53.083Z,0.50
2023-03-03T22:53:21.929Z,0.43
2023-03-03T22:55:50.250Z,0.45
2023-03-03T22:58:20.168Z,0.40
2023-03-03T23:00:49.248Z,0.47
2023-03-03T23:03:17.751Z,0.50
2023-03-03T23:05:51.677Z,0.50
2023-03-03T23:08:21.879Z,0.70
2023-03-03T23:10:50.100Z,0.68
2023-03-03T23:13:18.472Z,0.60
2023-03-03T23:15:46.766Z,0.95
2023-03-03T23:18:15.052Z,1.30
2023-03-03T23:20:46.085Z,1.20
2023-03-03T23:23:15.817Z,1.02
2023-03-03T23:25:44.282Z,0.80
2023-03-03T23:28:15.505Z,0.80
2023-03-03T23:30:43.952Z,1.00
2023-03-03T23:33:12.237Z,0.80
2023-03-03T23:35:40.445Z,0.90
2023-03-03T23:38:08.688Z,0.90
2023-03-03T23:40:38.249Z,0.90
2023-03-03T23:43:11.456Z,0.93
2023-03-03T23:45:39.555Z,1.20
2023-03-03T23:48:08.157Z,0.80
2023-03-03T23:50:37.292Z,0.75
2023-03-03T23:53:06.193Z,0.90
2023-03-03T23:55:34.489Z,0.60
2023-03-03T23:58:04.095Z,0.88
